Weidmanville, Pennsylvania
Current Conditions -  °F | °C
As of 12:53 PM on Thursday 30 Oct 2014 (Local Time) from KLNS Reporting Station
Scattered Clouds Scattered Clouds  
Wind Chill: 55°   Ceiling: Unl
Heat Index: 55°   Visibility: 10mi
Dew Point: 38°   Wind: 8mph
Humidity: 53%   Direction: 340°NNW
Pressure: 30.03"   Gusts: NA
Location:  40.1811°N, 76.176°W
Report Text: KLNS 301653Z 34007KT 10SM SCT041 13/03 A3003 RMK AO2 SLP170 T01280033
Loading
Personal Weather Stations






























Interactive Weather Map
Tropical Storm Tracking
New forecast layout! Learn more

10-Day Weather Forecast

Advertisements
Track Severe Weather on mobile